createdAt,value
2019-03-31T00:00:12.633Z,1004.6
2019-03-31T00:01:13.325Z,1004.6
2019-03-31T00:02:14.008Z,1004.6
2019-03-31T00:03:14.700Z,1004.6
2019-03-31T00:04:15.383Z,1004.6
2019-03-31T00:05:16.090Z,1004.6
2019-03-31T00:06:16.759Z,1004.5
2019-03-31T00:07:17.448Z,1004.5
2019-03-31T00:08:18.137Z,1004.6
2019-03-31T00:09:18.827Z,1004.6
2019-03-31T00:10:19.512Z,1004.5
2019-03-31T00:11:20.204Z,1004.6
2019-03-31T00:12:20.900Z,1004.6
2019-03-31T00:13:21.579Z,1004.5
2019-03-31T00:14:22.265Z,1004.5
2019-03-31T00:15:22.952Z,1004.5
2019-03-31T00:16:23.640Z,1004.5
2019-03-31T00:17:24.327Z,1004.5
2019-03-31T00:18:25.015Z,1004.5
2019-03-31T00:19:25.707Z,1004.5
2019-03-31T00:20:26.395Z,1004.5
2019-03-31T00:21:27.081Z,1004.5
2019-03-31T00:22:27.769Z,1004.5
2019-03-31T00:23:28.451Z,1004.5
2019-03-31T00:24:29.139Z,1004.5
2019-03-31T00:25:29.831Z,1004.5
2019-03-31T00:26:30.514Z,1004.5
2019-03-31T00:27:31.198Z,1004.6
2019-03-31T00:28:31.890Z,1004.6
2019-03-31T00:29:32.574Z,1004.6
2019-03-31T00:30:33.258Z,1004.6
2019-03-31T00:31:33.943Z,1004.6
2019-03-31T00:32:34.628Z,1004.6
2019-03-31T00:33:35.319Z,1004.6
2019-03-31T00:34:36.008Z,1004.6
2019-03-31T00:35:36.689Z,1004.6
2019-03-31T00:36:37.378Z,1004.6
2019-03-31T00:37:38.093Z,1004.6
2019-03-31T00:38:38.758Z,1004.6
2019-03-31T00:39:39.436Z,1004.6
2019-03-31T00:40:40.124Z,1004.6
2019-03-31T00:41:40.811Z,1004.5
2019-03-31T00:42:41.495Z,1004.5
2019-03-31T00:43:42.182Z,1004.5
2019-03-31T00:44:42.868Z,1004.5
2019-03-31T00:45:43.554Z,1004.5
2019-03-31T00:46:44.239Z,1004.6
2019-03-31T00:47:44.926Z,1004.6
2019-03-31T00:48:45.614Z,1004.5
2019-03-31T00:49:46.298Z,1004.5
2019-03-31T00:50:46.986Z,1004.6
2019-03-31T00:51:47.676Z,1004.5
2019-03-31T00:52:48.356Z,1004.6
2019-03-31T00:53:49.043Z,1004.6
2019-03-31T00:54:49.730Z,1004.6
2019-03-31T00:55:50.420Z,1004.6
2019-03-31T00:56:51.113Z,1004.6
2019-03-31T00:57:51.791Z,1004.6
2019-03-31T00:58:52.481Z,1004.6
2019-03-31T00:59:53.167Z,1004.6
2019-03-31T01:00:53.850Z,1004.6
2019-03-31T01:01:54.541Z,1004.6
2019-03-31T01:02:55.223Z,1004.6
2019-03-31T01:03:55.906Z,1004.6
2019-03-31T01:04:56.598Z,1004.6
2019-03-31T01:05:57.278Z,1004.5
2019-03-31T01:06:57.967Z,1004.5
2019-03-31T01:07:58.660Z,1004.5
2019-03-31T01:08:59.374Z,1004.5
2019-03-31T01:10:00.032Z,1004.5
2019-03-31T01:11:00.717Z,1004.5
2019-03-31T01:12:01.403Z,1004.5
2019-03-31T01:13:02.098Z,1004.5
2019-03-31T01:14:02.780Z,1004.5
2019-03-31T01:15:03.467Z,1004.5
2019-03-31T01:16:04.157Z,1004.6
2019-03-31T01:17:04.841Z,1004.5
2019-03-31T01:18:05.533Z,1004.6
2019-03-31T01:19:06.215Z,1004.6
2019-03-31T01:20:06.901Z,1004.7
2019-03-31T01:21:07.587Z,1004.6
2019-03-31T01:22:08.278Z,1004.6
2019-03-31T01:23:08.957Z,1004.6
2019-03-31T01:24:09.640Z,1004.6
2019-03-31T01:25:10.330Z,1004.6
2019-03-31T01:26:11.015Z,1004.6
2019-03-31T01:27:11.706Z,1004.6
2019-03-31T01:28:12.400Z,1004.5
2019-03-31T01:29:13.081Z,1004.6
2019-03-31T01:30:13.766Z,1004.6
2019-03-31T01:31:14.459Z,1004.6
2019-03-31T01:32:15.141Z,1004.6
2019-03-31T01:33:15.827Z,1004.6
2019-03-31T01:34:16.490Z,1004.7
2019-03-31T01:35:17.174Z,1004.7
2019-03-31T01:36:17.857Z,1004.7
2019-03-31T01:37:20.116Z,1004.7
2019-03-31T01:38:19.230Z,1004.8
2019-03-31T01:39:19.920Z,1004.7
2019-03-31T01:40:20.607Z,1004.7
2019-03-31T01:41:21.292Z,1004.7
2019-03-31T01:42:21.978Z,1004.7
2019-03-31T01:43:22.663Z,1004.8
2019-03-31T01:44:23.350Z,1004.8
2019-03-31T01:45:24.039Z,1004.8
2019-03-31T01:46:24.726Z,1004.8
2019-03-31T01:47:25.415Z,1004.8
2019-03-31T01:48:26.105Z,1004.8
2019-03-31T01:49:26.803Z,1004.8
2019-03-31T01:50:27.476Z,1004.8
2019-03-31T01:51:28.162Z,1004.9
2019-03-31T01:52:28.848Z,1004.9
2019-03-31T01:53:29.550Z,1004.9
2019-03-31T01:54:30.232Z,1004.9
2019-03-31T01:55:30.913Z,1004.8
2019-03-31T01:56:31.597Z,1004.8
2019-03-31T01:57:32.285Z,1004.8
2019-03-31T01:58:32.973Z,1004.8
2019-03-31T01:59:33.664Z,1004.9
2019-03-31T02:00:34.347Z,1004.8
2019-03-31T02:01:35.032Z,1004.8
2019-03-31T02:02:35.719Z,1004.8
2019-03-31T02:03:36.407Z,1004.8
2019-03-31T02:04:37.092Z,1004.8
2019-03-31T02:05:37.780Z,1004.8
2019-03-31T02:06:38.475Z,1004.8
2019-03-31T02:07:39.160Z,1004.8
2019-03-31T02:08:39.863Z,1004.9
2019-03-31T02:09:40.536Z,1004.9
2019-03-31T02:10:41.213Z,1004.9
2019-03-31T02:11:41.895Z,1005.0
2019-03-31T02:12:42.591Z,1005.0
2019-03-31T02:13:43.276Z,1005.0
2019-03-31T02:14:43.956Z,1005.0
2019-03-31T02:15:44.711Z,1005.0
2019-03-31T02:16:45.337Z,1004.9
2019-03-31T02:17:46.026Z,1004.9
2019-03-31T02:18:46.710Z,1005.0
2019-03-31T02:19:47.398Z,1005.0
2019-03-31T02:20:48.088Z,1005.0
2019-03-31T02:21:48.776Z,1005.0
2019-03-31T02:22:49.463Z,1005.1
2019-03-31T02:23:50.144Z,1005.1
2019-03-31T02:24:50.830Z,1005.1
2019-03-31T02:25:51.518Z,1005.1
2019-03-31T02:26:52.208Z,1005.1
2019-03-31T02:27:52.893Z,1005.1
2019-03-31T02:28:53.577Z,1005.1
2019-03-31T02:29:54.261Z,1005.1
2019-03-31T02:30:54.951Z,1005.1
2019-03-31T02:31:55.641Z,1005.1
2019-03-31T02:32:56.328Z,1005.1
2019-03-31T02:33:57.003Z,1005.1
2019-03-31T02:34:57.690Z,1005.1
2019-03-31T02:35:58.396Z,1005.1
2019-03-31T02:36:59.064Z,1005.2
2019-03-31T02:37:59.750Z,1005.1
2019-03-31T02:39:00.446Z,1005.2
2019-03-31T02:40:01.134Z,1005.2
2019-03-31T02:41:01.823Z,1005.2
2019-03-31T02:42:02.501Z,1005.2
2019-03-31T02:43:03.188Z,1005.2
2019-03-31T02:44:03.882Z,1005.2
2019-03-31T02:45:04.565Z,1005.2
2019-03-31T02:46:05.255Z,1005.2
2019-03-31T02:47:05.938Z,1005.3
2019-03-31T02:48:06.617Z,1005.3
2019-03-31T02:49:07.306Z,1005.3
2019-03-31T02:50:07.997Z,1005.3
2019-03-31T02:51:08.682Z,1005.3
2019-03-31T02:52:09.373Z,1005.3
2019-03-31T02:53:10.051Z,1005.3
2019-03-31T02:54:10.737Z,1005.3
2019-03-31T02:55:11.422Z,1005.3
2019-03-31T02:56:12.109Z,1005.3
2019-03-31T02:57:12.761Z,1005.3
2019-03-31T02:58:13.451Z,1005.3
2019-03-31T02:59:14.290Z,1005.3
2019-03-31T03:00:14.975Z,1005.3
2019-03-31T03:01:15.654Z,1005.3
2019-03-31T03:02:16.344Z,1005.3
2019-03-31T03:03:17.035Z,1005.3
2019-03-31T03:04:17.713Z,1005.3
2019-03-31T03:05:20.261Z,1005.3
2019-03-31T03:06:19.084Z,1005.3
2019-03-31T03:07:19.767Z,1005.3
2019-03-31T03:08:20.450Z,1005.3
2019-03-31T03:09:21.134Z,1005.3
2019-03-31T03:10:21.821Z,1005.3
2019-03-31T03:11:22.707Z,1005.4
2019-03-31T03:12:23.400Z,1005.4
2019-03-31T03:13:24.080Z,1005.4
2019-03-31T03:14:24.768Z,1005.3
2019-03-31T03:15:25.451Z,1005.4
2019-03-31T03:16:26.137Z,1005.4
2019-03-31T03:17:26.818Z,1005.3
2019-03-31T03:18:27.504Z,1005.3
2019-03-31T03:19:28.190Z,1005.3
2019-03-31T03:20:28.880Z,1005.3
2019-03-31T03:21:29.558Z,1005.3
2019-03-31T03:22:30.243Z,1005.3
2019-03-31T03:23:30.933Z,1005.3
2019-03-31T03:24:31.612Z,1005.3
2019-03-31T03:25:32.301Z,1005.3
2019-03-31T03:26:32.978Z,1005.3
2019-03-31T03:27:33.668Z,1005.3
2019-03-31T03:28:34.355Z,1005.4
2019-03-31T03:29:35.054Z,1005.4
2019-03-31T03:30:35.794Z,1005.4
2019-03-31T03:31:36.413Z,1005.4
2019-03-31T03:32:37.416Z,1005.4
2019-03-31T03:33:37.771Z,1005.5
2019-03-31T03:34:38.464Z,1005.5
2019-03-31T03:35:39.150Z,1005.6
2019-03-31T03:36:43.208Z,1005.6
2019-03-31T03:37:40.515Z,1005.6
2019-03-31T03:38:41.201Z,1005.5
2019-03-31T03:39:41.890Z,1005.6
2019-03-31T03:40:42.571Z,1005.6
2019-03-31T03:41:43.261Z,1005.6
2019-03-31T03:42:43.951Z,1005.6
2019-03-31T03:43:54.843Z,1005.6
2019-03-31T03:44:45.306Z,1005.6
2019-03-31T03:45:46.009Z,1005.6
2019-03-31T03:46:46.684Z,1005.6
2019-03-31T03:47:47.364Z,1005.6
2019-03-31T03:48:48.169Z,1005.6
2019-03-31T03:49:48.733Z,1005.6
2019-03-31T03:50:49.410Z,1005.6
2019-03-31T03:51:50.100Z,1005.6
2019-03-31T03:52:50.790Z,1005.6
2019-03-31T03:53:51.474Z,1005.6
2019-03-31T03:54:52.160Z,1005.5
2019-03-31T03:55:52.844Z,1005.6
2019-03-31T03:56:53.538Z,1005.6
2019-03-31T03:57:54.230Z,1005.6
2019-03-31T03:58:54.909Z,1005.6
2019-03-31T03:59:55.588Z,1005.6
2019-03-31T04:00:56.275Z,1005.6
2019-03-31T04:01:56.972Z,1005.6
2019-03-31T04:02:57.641Z,1005.6
2019-03-31T04:03:58.338Z,1005.7
2019-03-31T04:04:59.010Z,1005.8
2019-03-31T04:05:59.697Z,1005.8
2019-03-31T04:07:00.402Z,1005.8
2019-03-31T04:08:01.073Z,1005.9
2019-03-31T04:09:01.750Z,1005.9
2019-03-31T04:10:02.439Z,1005.8
2019-03-31T04:11:03.127Z,1005.9
2019-03-31T04:12:03.817Z,1005.9
2019-03-31T04:13:04.499Z,1005.9
2019-03-31T04:14:05.189Z,1005.9
2019-03-31T04:15:05.873Z,1006.0
2019-03-31T04:16:06.557Z,1005.9
2019-03-31T04:17:07.256Z,1005.9
2019-03-31T04:18:07.923Z,1005.9
2019-03-31T04:19:08.610Z,1006.0
2019-03-31T04:20:09.298Z,1006.0
2019-03-31T04:21:09.981Z,1006.1
2019-03-31T04:22:10.667Z,1006.1
2019-03-31T04:23:11.497Z,1006.1
2019-03-31T04:24:12.039Z,1006.1
2019-03-31T04:25:12.727Z,1006.1
2019-03-31T04:26:13.400Z,1006.1
2019-03-31T04:27:18.545Z,1006.1
2019-03-31T04:28:14.771Z,1006.1
2019-03-31T04:29:15.464Z,1006.2
2019-03-31T04:30:16.158Z,1006.2
2019-03-31T04:31:16.807Z,1006.2
2019-03-31T04:32:17.487Z,1006.2
2019-03-31T04:33:18.169Z,1006.3
2019-03-31T04:34:18.864Z,1006.3
2019-03-31T04:35:19.539Z,1006.3
2019-03-31T04:36:20.239Z,1006.4
2019-03-31T04:37:20.904Z,1006.4
2019-03-31T04:38:21.616Z,1006.4
2019-03-31T04:39:22.278Z,1006.4
2019-03-31T04:40:22.962Z,1006.4
2019-03-31T04:41:23.649Z,1006.4
2019-03-31T04:42:24.330Z,1006.4
2019-03-31T04:43:25.009Z,1006.4
2019-03-31T04:44:25.700Z,1006.4
2019-03-31T04:45:26.463Z,1006.5
2019-03-31T04:46:27.069Z,1006.5
2019-03-31T04:47:27.748Z,1006.4
2019-03-31T04:48:28.448Z,1006.4
2019-03-31T04:49:29.123Z,1006.5
2019-03-31T04:50:29.816Z,1006.5
2019-03-31T04:51:30.494Z,1006.5
2019-03-31T04:52:31.184Z,1006.5
2019-03-31T04:53:31.863Z,1006.5
2019-03-31T04:54:32.551Z,1006.5
2019-03-31T04:55:33.248Z,1006.6
2019-03-31T04:56:33.922Z,1006.6
2019-03-31T04:57:34.615Z,1006.6
2019-03-31T04:58:35.301Z,1006.6
2019-03-31T04:59:35.978Z,1006.6
2019-03-31T05:00:36.666Z,1006.5
2019-03-31T05:01:37.356Z,1006.6
2019-03-31T05:02:38.042Z,1006.6
2019-03-31T05:03:38.741Z,1006.6
2019-03-31T05:04:39.429Z,1006.6
2019-03-31T05:05:40.111Z,1006.7
2019-03-31T05:06:40.808Z,1006.7
2019-03-31T05:07:41.493Z,1006.7
2019-03-31T05:08:42.184Z,1006.7
2019-03-31T05:09:42.869Z,1006.7
2019-03-31T05:10:43.564Z,1006.8
2019-03-31T05:11:44.244Z,1006.8
2019-03-31T05:12:44.931Z,1006.8
2019-03-31T05:13:45.624Z,1006.8
2019-03-31T05:14:46.305Z,1006.8
2019-03-31T05:15:46.996Z,1006.8
2019-03-31T05:16:47.679Z,1006.8
2019-03-31T05:17:48.369Z,1006.8
2019-03-31T05:18:49.060Z,1006.8
2019-03-31T05:19:49.747Z,1006.8
2019-03-31T05:20:50.435Z,1006.7
2019-03-31T05:21:51.123Z,1006.8
2019-03-31T05:22:52.993Z,1006.8
2019-03-31T05:23:52.490Z,1006.8
2019-03-31T05:24:53.179Z,1006.8
2019-03-31T05:25:53.865Z,1006.8
2019-03-31T05:26:54.561Z,1006.9
2019-03-31T05:27:55.240Z,1006.9
2019-03-31T05:28:55.928Z,1006.9
2019-03-31T05:29:56.617Z,1006.9
2019-03-31T05:30:57.306Z,1006.9
2019-03-31T05:31:57.991Z,1007.0
2019-03-31T05:32:58.693Z,1007.0
2019-03-31T05:33:59.385Z,1007.0
2019-03-31T05:35:00.338Z,1007.1
2019-03-31T05:36:00.749Z,1007.1
2019-03-31T05:37:01.430Z,1007.0
2019-03-31T05:38:02.123Z,1007.1
2019-03-31T05:39:02.866Z,1007.0
2019-03-31T05:40:03.494Z,1007.1
2019-03-31T05:41:04.288Z,1007.1
2019-03-31T05:42:04.974Z,1007.2
2019-03-31T05:43:05.663Z,1007.1
2019-03-31T05:44:06.349Z,1007.1
2019-03-31T05:45:07.043Z,1007.2
2019-03-31T05:46:07.739Z,1007.2
2019-03-31T05:47:08.426Z,1007.1
2019-03-31T05:48:09.110Z,1007.2
2019-03-31T05:49:09.797Z,1007.1
2019-03-31T05:50:10.484Z,1007.1
2019-03-31T05:51:11.176Z,1007.1
2019-03-31T05:52:11.864Z,1007.1
2019-03-31T05:53:12.557Z,1007.1
2019-03-31T05:54:13.245Z,1007.1
2019-03-31T05:55:13.931Z,1007.1
2019-03-31T05:56:14.625Z,1007.1
2019-03-31T05:57:15.315Z,1007.1
2019-03-31T05:58:16.005Z,1007.1
2019-03-31T05:59:16.696Z,1007.1
2019-03-31T06:00:17.385Z,1007.2
2019-03-31T06:01:18.074Z,1007.1
2019-03-31T06:02:18.769Z,1007.1
2019-03-31T06:03:19.467Z,1007.2
2019-03-31T06:04:32.629Z,1007.2
2019-03-31T06:05:20.829Z,1007.2
2019-03-31T06:06:21.610Z,1007.3
2019-03-31T06:07:22.206Z,1007.3
2019-03-31T06:08:22.896Z,1007.3
2019-03-31T06:09:23.589Z,1007.2
2019-03-31T06:10:24.275Z,1007.3
2019-03-31T06:11:24.966Z,1007.3
2019-03-31T06:12:25.657Z,1007.4
2019-03-31T06:13:26.344Z,1007.4
2019-03-31T06:14:27.031Z,1007.4
2019-03-31T06:15:27.722Z,1007.4
2019-03-31T06:16:28.410Z,1007.5
2019-03-31T06:17:29.103Z,1007.4
2019-03-31T06:18:29.788Z,1007.4
2019-03-31T06:19:30.480Z,1007.4
2019-03-31T06:20:31.162Z,1007.4
2019-03-31T06:21:31.854Z,1007.4
2019-03-31T06:22:32.558Z,1007.4
2019-03-31T06:23:33.246Z,1007.4
2019-03-31T06:24:33.933Z,1007.4
2019-03-31T06:25:34.629Z,1007.5
2019-03-31T06:26:35.305Z,1007.5
2019-03-31T06:27:35.997Z,1007.5
2019-03-31T06:28:36.690Z,1007.5
2019-03-31T06:29:37.379Z,1007.5
2019-03-31T06:30:38.069Z,1007.5
2019-03-31T06:31:38.757Z,1007.5
2019-03-31T06:32:39.445Z,1007.5
2019-03-31T06:33:40.133Z,1007.5
2019-03-31T06:34:47.405Z,1007.5
2019-03-31T06:35:41.508Z,1007.5
2019-03-31T06:36:42.196Z,1007.5
2019-03-31T06:37:42.887Z,1007.4
2019-03-31T06:38:43.576Z,1007.5
2019-03-31T06:39:44.274Z,1007.4
2019-03-31T06:40:44.969Z,1007.5
2019-03-31T06:41:45.664Z,1007.4
2019-03-31T06:42:46.346Z,1007.5
2019-03-31T06:43:47.037Z,1007.4
2019-03-31T06:44:47.728Z,1007.5
2019-03-31T06:45:48.452Z,1007.5
2019-03-31T06:46:49.147Z,1007.5
2019-03-31T06:47:49.899Z,1007.5
2019-03-31T06:48:50.586Z,1007.5
2019-03-31T06:49:51.248Z,1007.5
2019-03-31T06:50:51.941Z,1007.5
2019-03-31T06:51:52.639Z,1007.5
2019-03-31T06:52:53.329Z,1007.5
2019-03-31T06:53:54.019Z,1007.5
2019-03-31T06:54:54.712Z,1007.5
2019-03-31T06:55:55.413Z,1007.5
2019-03-31T06:56:56.093Z,1007.5
2019-03-31T06:57:56.785Z,1007.6
2019-03-31T06:58:57.533Z,1007.5
2019-03-31T06:59:58.168Z,1007.5
2019-03-31T07:00:58.860Z,1007.6
2019-03-31T07:02:02.844Z,1007.6
2019-03-31T07:03:00.242Z,1007.6
2019-03-31T07:04:00.932Z,1007.6
2019-03-31T07:05:02.056Z,1007.6
2019-03-31T07:06:02.307Z,1007.7
2019-03-31T07:07:02.972Z,1007.7
2019-03-31T07:08:03.664Z,1007.6
2019-03-31T07:09:04.362Z,1007.7
2019-03-31T07:10:05.047Z,1007.7
2019-03-31T07:11:05.736Z,1007.7
2019-03-31T07:12:06.415Z,1007.7
2019-03-31T07:13:07.108Z,1007.8
2019-03-31T07:14:07.810Z,1007.8
2019-03-31T07:15:08.488Z,1007.8
2019-03-31T07:16:09.180Z,1007.8
2019-03-31T07:17:09.870Z,1007.8
2019-03-31T07:18:10.557Z,1007.8
2019-03-31T07:19:11.248Z,1007.8
2019-03-31T07:20:11.940Z,1007.8
2019-03-31T07:21:12.628Z,1007.8
2019-03-31T07:22:13.328Z,1007.8
2019-03-31T07:23:14.008Z,1007.9
2019-03-31T07:24:14.699Z,1007.9
2019-03-31T07:25:15.401Z,1007.8
2019-03-31T07:26:16.093Z,1007.8
2019-03-31T07:27:16.785Z,1007.8
2019-03-31T07:28:17.473Z,1007.8
2019-03-31T07:29:18.166Z,1007.8
2019-03-31T07:30:18.857Z,1007.9
2019-03-31T07:31:19.547Z,1007.9
2019-03-31T07:32:20.239Z,1007.9
2019-03-31T07:33:20.902Z,1007.9
2019-03-31T07:34:21.607Z,1007.9
2019-03-31T07:35:22.287Z,1007.9
2019-03-31T07:36:22.981Z,1007.9
2019-03-31T07:37:23.680Z,1007.9
2019-03-31T07:38:38.041Z,1007.9
2019-03-31T07:39:25.145Z,1007.9
2019-03-31T07:40:25.776Z,1007.9
2019-03-31T07:41:26.771Z,1007.9
2019-03-31T07:42:27.239Z,1008.0
2019-03-31T07:43:27.899Z,1007.9
2019-03-31T07:44:28.621Z,1008.0
2019-03-31T07:45:29.304Z,1008.0
2019-03-31T07:46:29.999Z,1008.0
2019-03-31T07:47:30.687Z,1008.0
2019-03-31T07:48:31.496Z,1008.0
2019-03-31T07:49:32.207Z,1008.0
2019-03-31T07:50:32.914Z,1008.0
2019-03-31T07:51:33.618Z,1008.0
2019-03-31T07:52:34.605Z,1008.0
2019-03-31T07:53:35.209Z,1008.0
2019-03-31T07:54:35.905Z,1007.9
2019-03-31T07:55:36.600Z,1008.0
2019-03-31T07:56:37.294Z,1008.1
2019-03-31T07:57:38.019Z,1008.0
2019-03-31T07:58:38.733Z,1008.0
2019-03-31T07:59:39.427Z,1008.1
2019-03-31T08:00:40.058Z,1008.0
2019-03-31T08:01:40.746Z,1008.1
2019-03-31T08:02:41.438Z,1008.0
2019-03-31T08:03:42.159Z,1008.1
2019-03-31T08:04:42.834Z,1008.1
2019-03-31T08:05:43.527Z,1008.1
2019-03-31T08:06:44.270Z,1008.2
2019-03-31T08:07:44.920Z,1008.2
2019-03-31T08:08:45.608Z,1008.2
2019-03-31T08:09:46.299Z,1008.2
2019-03-31T08:10:46.999Z,1008.2
2019-03-31T08:11:47.685Z,1008.2
2019-03-31T08:12:48.379Z,1008.2
2019-03-31T08:13:49.081Z,1008.2
2019-03-31T08:14:49.769Z,1008.2
2019-03-31T08:15:50.461Z,1008.2
2019-03-31T08:16:51.155Z,1008.2
2019-03-31T08:17:51.848Z,1008.3
2019-03-31T08:18:52.541Z,1008.2
2019-03-31T08:19:53.237Z,1008.2
2019-03-31T08:20:53.928Z,1008.2
2019-03-31T08:21:54.649Z,1008.3
2019-03-31T08:22:57.128Z,1008.2
2019-03-31T08:23:56.011Z,1008.3
2019-03-31T08:24:56.693Z,1008.3
2019-03-31T08:25:57.383Z,1008.2
2019-03-31T08:26:58.087Z,1008.3
2019-03-31T08:27:58.782Z,1008.3
2019-03-31T08:28:59.472Z,1008.3
2019-03-31T08:30:01.341Z,1008.2
2019-03-31T08:31:00.858Z,1008.3
2019-03-31T08:32:01.550Z,1008.3
2019-03-31T08:33:02.239Z,1008.3
2019-03-31T08:34:02.938Z,1008.3
2019-03-31T08:35:03.625Z,1008.3
2019-03-31T08:36:04.320Z,1008.4
2019-03-31T08:37:05.089Z,1008.4
2019-03-31T08:38:05.760Z,1008.4
2019-03-31T08:39:06.451Z,1008.4
2019-03-31T08:40:07.145Z,1008.4
2019-03-31T08:41:07.837Z,1008.5
2019-03-31T08:42:08.527Z,1008.5
2019-03-31T08:43:09.221Z,1008.5
2019-03-31T08:44:09.916Z,1008.5
2019-03-31T08:45:10.611Z,1008.5
2019-03-31T08:46:11.300Z,1008.5
2019-03-31T08:47:11.996Z,1008.5
2019-03-31T08:48:12.699Z,1008.5
2019-03-31T08:49:13.435Z,1008.5
2019-03-31T08:50:14.473Z,1008.5
2019-03-31T08:51:15.094Z,1008.6
2019-03-31T08:52:15.791Z,1008.6
2019-03-31T08:53:16.525Z,1008.6
2019-03-31T08:54:17.174Z,1008.6
2019-03-31T08:55:17.867Z,1008.6
2019-03-31T08:56:18.564Z,1008.7
2019-03-31T08:57:19.257Z,1008.7
2019-03-31T08:58:19.948Z,1008.7
2019-03-31T08:59:20.645Z,1008.7
2019-03-31T09:00:21.335Z,1008.7
2019-03-31T09:01:22.028Z,1008.7
2019-03-31T09:02:22.718Z,1008.7
2019-03-31T09:03:23.409Z,1008.8
2019-03-31T09:04:24.105Z,1008.8
2019-03-31T09:05:24.799Z,1008.7
2019-03-31T09:06:25.535Z,1008.7
2019-03-31T09:07:26.218Z,1008.8
2019-03-31T09:08:26.907Z,1008.8
2019-03-31T09:09:27.604Z,1008.8
2019-03-31T09:10:28.298Z,1008.8
2019-03-31T09:11:28.997Z,1008.8
2019-03-31T09:12:29.694Z,1008.8
2019-03-31T09:13:30.391Z,1008.8
2019-03-31T09:14:31.078Z,1008.8
2019-03-31T09:15:31.770Z,1008.8
2019-03-31T09:16:32.477Z,1008.8
2019-03-31T09:17:33.157Z,1008.8
2019-03-31T09:18:33.851Z,1008.8
2019-03-31T09:19:34.549Z,1008.8
2019-03-31T09:20:35.241Z,1008.8
2019-03-31T09:21:35.946Z,1008.8
2019-03-31T09:22:36.623Z,1008.9
2019-03-31T09:23:37.320Z,1008.9
2019-03-31T09:24:38.006Z,1008.8
2019-03-31T09:25:38.701Z,1008.8
2019-03-31T09:26:39.386Z,1008.9
2019-03-31T09:27:40.089Z,1008.8
2019-03-31T09:28:40.773Z,1008.9
2019-03-31T09:29:41.465Z,1008.9
2019-03-31T09:30:42.157Z,1008.9
2019-03-31T09:31:42.848Z,1008.9
2019-03-31T09:32:43.534Z,1008.9
2019-03-31T09:33:44.231Z,1008.9
2019-03-31T09:34:44.918Z,1008.9
2019-03-31T09:35:45.618Z,1008.9
2019-03-31T09:36:46.300Z,1008.9
2019-03-31T09:37:47.003Z,1009.0
2019-03-31T09:38:48.637Z,1008.9
2019-03-31T09:39:48.373Z,1008.9
2019-03-31T09:40:49.068Z,1009.0
2019-03-31T09:41:49.758Z,1009.0
2019-03-31T09:42:50.450Z,1009.0
2019-03-31T09:43:51.146Z,1008.9
2019-03-31T09:44:51.844Z,1009.0
2019-03-31T09:45:52.621Z,1008.9
2019-03-31T09:46:53.230Z,1009.0
2019-03-31T09:47:53.920Z,1008.9
2019-03-31T09:48:54.610Z,1009.0
2019-03-31T09:49:55.297Z,1008.9
2019-03-31T09:50:56.715Z,1008.9
2019-03-31T09:51:56.683Z,1008.9
2019-03-31T09:52:57.376Z,1008.9
2019-03-31T09:53:58.044Z,1008.9
2019-03-31T09:54:58.731Z,1008.9
2019-03-31T09:55:59.429Z,1009.0
2019-03-31T09:57:00.121Z,1009.0
2019-03-31T09:58:00.805Z,1009.0
2019-03-31T09:59:01.497Z,1009.0
2019-03-31T10:00:02.195Z,1009.0
2019-03-31T10:01:02.894Z,1009.0
2019-03-31T10:02:03.576Z,1009.0
2019-03-31T10:03:04.266Z,1009.0
2019-03-31T10:04:04.963Z,1009.0
2019-03-31T10:05:05.657Z,1009.0
2019-03-31T10:06:11.080Z,1009.0
2019-03-31T10:07:07.043Z,1009.0
2019-03-31T10:08:07.746Z,1009.0
2019-03-31T10:09:08.432Z,1008.9
2019-03-31T10:10:09.127Z,1009.0
2019-03-31T10:11:09.822Z,1009.0
2019-03-31T10:12:10.514Z,1009.0
2019-03-31T10:13:11.219Z,1009.0
2019-03-31T10:14:11.915Z,1009.0
2019-03-31T10:15:12.604Z,1009.0
2019-03-31T10:16:13.301Z,1009.0
2019-03-31T10:17:13.993Z,1009.0
2019-03-31T10:18:17.989Z,1009.1
2019-03-31T10:19:15.366Z,1009.0
2019-03-31T10:20:16.063Z,1009.1
2019-03-31T10:21:16.729Z,1009.0
2019-03-31T10:22:17.424Z,1009.1
2019-03-31T10:23:18.122Z,1009.0
2019-03-31T10:24:18.816Z,1009.0
2019-03-31T10:25:19.509Z,1009.0
2019-03-31T10:26:30.990Z,1009.1
2019-03-31T10:27:20.888Z,1009.0
2019-03-31T10:28:21.660Z,1009.0
2019-03-31T10:29:22.338Z,1009.0
2019-03-31T10:30:23.047Z,1009.0
2019-03-31T10:31:23.737Z,1009.0
2019-03-31T10:32:24.429Z,1009.0
2019-03-31T10:33:25.125Z,1009.0
2019-03-31T10:34:25.822Z,1009.0
2019-03-31T10:35:26.522Z,1009.0
2019-03-31T10:36:27.221Z,1009.0
2019-03-31T10:37:27.915Z,1009.1
2019-03-31T10:38:28.608Z,1009.1
2019-03-31T10:39:29.302Z,1009.1
2019-03-31T10:40:30.000Z,1009.1
2019-03-31T10:41:31.092Z,1009.1
2019-03-31T10:42:31.773Z,1009.1
2019-03-31T10:43:32.442Z,1009.1
2019-03-31T10:44:33.128Z,1009.1
2019-03-31T10:45:33.820Z,1009.1
2019-03-31T10:46:34.514Z,1009.0
2019-03-31T10:47:35.205Z,1009.0
2019-03-31T10:48:35.901Z,1009.0
2019-03-31T10:49:36.591Z,1009.0
2019-03-31T10:50:37.288Z,1009.0
2019-03-31T10:51:37.982Z,1009.1
2019-03-31T10:52:38.675Z,1009.1
2019-03-31T10:53:39.371Z,1009.0
2019-03-31T10:54:40.066Z,1009.1
2019-03-31T10:55:40.772Z,1009.1
2019-03-31T10:56:41.450Z,1009.1
2019-03-31T10:57:42.143Z,1009.1
2019-03-31T10:58:42.837Z,1009.0
2019-03-31T10:59:43.530Z,1009.0
2019-03-31T11:00:44.795Z,1009.0
2019-03-31T11:01:44.920Z,1009.1
2019-03-31T11:02:45.608Z,1009.1
2019-03-31T11:03:46.302Z,1009.0
2019-03-31T11:04:46.996Z,1009.1
2019-03-31T11:05:47.697Z,1009.1
2019-03-31T11:06:59.030Z,1009.0
2019-03-31T11:07:49.112Z,1009.1
2019-03-31T11:08:49.856Z,1009.1
2019-03-31T11:09:50.556Z,1009.1
2019-03-31T11:10:51.246Z,1009.1
2019-03-31T11:11:51.948Z,1009.1
2019-03-31T11:12:52.685Z,1009.1
2019-03-31T11:13:53.424Z,1009.1
2019-03-31T11:14:54.218Z,1009.1
2019-03-31T11:15:57.503Z,1009.1
2019-03-31T11:16:55.620Z,1009.2
2019-03-31T11:17:56.348Z,1009.1
2019-03-31T11:18:57.052Z,1009.1
2019-03-31T11:20:00.621Z,1009.2
2019-03-31T11:20:58.537Z,1009.2
2019-03-31T11:21:59.226Z,1009.2
2019-03-31T11:22:59.926Z,1009.2
2019-03-31T11:24:00.611Z,1009.2
2019-03-31T11:25:01.305Z,1009.2
2019-03-31T11:26:02.007Z,1009.3
2019-03-31T11:27:02.698Z,1009.3
2019-03-31T11:28:03.390Z,1009.3
2019-03-31T11:29:04.084Z,1009.3
2019-03-31T11:30:04.780Z,1009.3
2019-03-31T11:31:05.476Z,1009.3
2019-03-31T11:32:06.180Z,1009.3
2019-03-31T11:33:07.645Z,1009.3
2019-03-31T11:34:07.559Z,1009.3
2019-03-31T11:35:08.254Z,1009.3
2019-03-31T11:36:09.468Z,1009.3
2019-03-31T11:37:13.872Z,1009.3
2019-03-31T11:38:10.759Z,1009.2
2019-03-31T11:39:11.453Z,1009.3
2019-03-31T11:40:12.153Z,1009.2
2019-03-31T11:41:12.844Z,1009.3
2019-03-31T11:42:13.545Z,1009.3
2019-03-31T11:43:14.242Z,1009.3
2019-03-31T11:44:14.934Z,1009.3
2019-03-31T11:45:15.632Z,1009.3
2019-03-31T11:46:16.329Z,1009.3
2019-03-31T11:47:17.019Z,1009.4
2019-03-31T11:48:17.713Z,1009.4
2019-03-31T11:49:18.411Z,1009.3
2019-03-31T11:50:19.106Z,1009.4
2019-03-31T11:51:19.805Z,1009.4
2019-03-31T11:52:20.502Z,1009.3
2019-03-31T11:53:21.198Z,1009.3
2019-03-31T11:54:21.892Z,1009.3
2019-03-31T11:55:22.586Z,1009.3
2019-03-31T11:56:23.289Z,1009.4
2019-03-31T11:57:23.991Z,1009.3
2019-03-31T11:58:24.685Z,1009.3
2019-03-31T11:59:25.383Z,1009.3
2019-03-31T12:00:26.099Z,1009.3
2019-03-31T12:01:26.781Z,1009.3
2019-03-31T12:02:27.916Z,1009.3
2019-03-31T12:03:31.019Z,1009.3
2019-03-31T12:04:28.869Z,1009.2
2019-03-31T12:05:29.635Z,1009.3
2019-03-31T12:06:30.309Z,1009.2
2019-03-31T12:07:45.665Z,1009.3
2019-03-31T12:08:31.692Z,1009.2
2019-03-31T12:09:32.387Z,1009.2
2019-03-31T12:10:33.085Z,1009.2
2019-03-31T12:11:33.785Z,1009.2
2019-03-31T12:12:34.487Z,1009.2
2019-03-31T12:13:35.186Z,1009.1
2019-03-31T12:14:35.853Z,1009.2
2019-03-31T12:15:36.551Z,1009.2
2019-03-31T12:16:37.248Z,1009.2
2019-03-31T12:17:37.952Z,1009.2
2019-03-31T12:18:38.644Z,1009.2
2019-03-31T12:19:39.335Z,1009.2
2019-03-31T12:20:40.036Z,1009.1
2019-03-31T12:21:40.761Z,1009.1
2019-03-31T12:22:41.461Z,1009.2
2019-03-31T12:23:42.148Z,1009.1
2019-03-31T12:24:42.883Z,1009.1
2019-03-31T12:25:43.569Z,1009.2
2019-03-31T12:26:44.275Z,1009.2
2019-03-31T12:27:44.975Z,1009.2
2019-03-31T12:28:45.698Z,1009.1
2019-03-31T12:29:46.376Z,1009.1
2019-03-31T12:30:47.068Z,1009.1
2019-03-31T12:31:47.761Z,1009.1
2019-03-31T12:32:48.461Z,1009.1
2019-03-31T12:33:49.244Z,1009.1
2019-03-31T12:34:49.979Z,1009.1
2019-03-31T12:35:50.711Z,1009.1
2019-03-31T12:36:51.409Z,1009.1